createdAt,value
2023-03-16T00:01:28.632Z,2.80
2023-03-16T00:03:56.563Z,2.73
2023-03-16T00:06:25.772Z,3.10
2023-03-16T00:08:58.833Z,2.57
2023-03-16T00:11:28.355Z,2.90
2023-03-16T00:13:56.298Z,2.80
2023-03-16T00:16:25.153Z,3.13
2023-03-16T00:18:53.408Z,2.73
2023-03-16T00:21:21.317Z,3.10
2023-03-16T00:23:49.216Z,2.97
2023-03-16T00:26:17.116Z,2.80
2023-03-16T00:28:46.404Z,2.40
2023-03-16T00:31:15.948Z,2.80
2023-03-16T00:33:43.930Z,2.70
2023-03-16T00:36:12.203Z,2.87
2023-03-16T00:38:45.387Z,2.80
2023-03-16T00:41:15.393Z,2.47
2023-03-16T00:43:45.754Z,2.60
2023-03-16T00:46:15.898Z,2.40
2023-03-16T00:48:45.767Z,2.63
2023-03-16T00:51:15.402Z,2.90
2023-03-16T00:53:44.794Z,2.50
2023-03-16T00:56:13.702Z,2.73
2023-03-16T00:58:43.445Z,2.60
2023-03-16T01:01:15.035Z,2.83
2023-03-16T01:03:43.589Z,2.67
2023-03-16T01:06:15.076Z,3.00
2023-03-16T01:08:43.147Z,3.60
2023-03-16T01:11:13.292Z,2.70
2023-03-16T01:13:41.491Z,2.80
2023-03-16T01:16:10.721Z,2.87
2023-03-16T01:18:40.214Z,3.20
2023-03-16T01:21:09.920Z,2.90
2023-03-16T01:23:38.206Z,2.90
2023-03-16T01:26:08.333Z,3.50
2023-03-16T01:28:36.319Z,3.37
2023-03-16T01:31:07.807Z,2.80
2023-03-16T01:33:36.358Z,3.20
2023-03-16T01:36:08.336Z,3.47
2023-03-16T01:38:36.501Z,3.07
2023-03-16T01:41:04.994Z,3.47
2023-03-16T01:43:34.705Z,3.00
2023-03-16T01:46:19.104Z,3.60
2023-03-16T01:48:56.386Z,3.20
2023-03-16T01:51:30.514Z,3.60
2023-03-16T01:54:04.326Z,3.60
2023-03-16T01:56:38.263Z,3.03
2023-03-16T01:59:10.903Z,3.20
2023-03-16T02:01:39.120Z,3.60
2023-03-16T02:04:18.734Z,3.43
2023-03-16T02:06:48.780Z,3.50
2023-03-16T02:09:19.349Z,3.83
2023-03-16T02:11:48.402Z,3.80
2023-03-16T02:14:16.334Z,3.90
2023-03-16T02:16:44.884Z,3.63
2023-03-16T02:19:17.797Z,3.90
2023-03-16T02:21:54.546Z,3.60
2023-03-16T02:24:22.785Z,3.70
2023-03-16T02:26:55.893Z,3.77
2023-03-16T02:29:46.012Z,3.53
2023-03-16T02:32:15.322Z,3.60
2023-03-16T02:34:44.037Z,3.70
2023-03-16T02:37:12.998Z,3.90
2023-03-16T02:39:44.064Z,3.30
2023-03-16T02:42:16.502Z,3.80
2023-03-16T02:44:49.525Z,4.00
2023-03-16T02:47:25.716Z,3.60
2023-03-16T02:49:53.635Z,3.80
2023-03-16T02:52:21.494Z,3.70
2023-03-16T02:54:49.510Z,4.00
2023-03-16T02:57:17.478Z,3.60
2023-03-16T02:59:46.756Z,3.43
2023-03-16T03:02:14.643Z,3.50
2023-03-16T03:04:46.153Z,3.90
2023-03-16T03:07:14.764Z,4.10
2023-03-16T03:09:43.164Z,3.97
2023-03-16T03:12:11.533Z,4.20
2023-03-16T03:14:39.875Z,3.70
2023-03-16T03:17:13.309Z,3.77
2023-03-16T03:19:41.493Z,3.93
2023-03-16T03:22:09.645Z,4.27
2023-03-16T03:24:37.700Z,3.83
2023-03-16T03:27:06.417Z,3.47
2023-03-16T03:29:35.354Z,4.03
2023-03-16T03:32:03.851Z,4.00
2023-03-16T03:34:33.633Z,3.97
2023-03-16T03:37:02.126Z,4.13
2023-03-16T03:39:30.231Z,3.67
2023-03-16T03:41:58.086Z,3.93
2023-03-16T03:44:26.925Z,3.50
2023-03-16T03:46:54.906Z,3.73
2023-03-16T03:49:22.908Z,3.87
2023-03-16T03:51:52.215Z,3.67
2023-03-16T03:54:20.158Z,3.83
2023-03-16T03:56:48.066Z,3.70
2023-03-16T03:59:15.939Z,3.90
2023-03-16T04:01:43.744Z,3.80
2023-03-16T04:04:11.800Z,3.37
2023-03-16T04:06:39.723Z,3.47
2023-03-16T04:09:09.925Z,3.77
2023-03-16T04:11:37.944Z,3.87
2023-03-16T04:14:06.786Z,3.73
2023-03-16T04:16:35.102Z,4.03
2023-03-16T04:19:03.105Z,4.27
2023-03-16T04:21:31.138Z,3.63
2023-03-16T04:23:59.066Z,4.13
2023-03-16T04:26:28.376Z,3.80
2023-03-16T04:28:56.336Z,3.50
2023-03-16T04:31:24.675Z,3.90
2023-03-16T04:33:54.591Z,3.80
2023-03-16T04:36:24.464Z,3.63
2023-03-16T04:38:52.698Z,3.93
2023-03-16T04:41:20.865Z,4.03
2023-03-16T04:43:50.092Z,3.90
2023-03-16T04:46:18.087Z,4.00
2023-03-16T04:48:46.049Z,4.37
2023-03-16T04:51:14.052Z,4.00
2023-03-16T04:53:42.001Z,3.70
2023-03-16T04:56:10.076Z,3.93
2023-03-16T04:58:37.934Z,3.63
2023-03-16T05:01:07.302Z,3.67
2023-03-16T05:03:35.548Z,3.97
2023-03-16T05:06:03.533Z,3.77
2023-03-16T05:08:31.502Z,3.30
2023-03-16T05:11:00.265Z,3.87
2023-03-16T05:13:28.279Z,3.77
2023-03-16T05:15:56.324Z,4.00
2023-03-16T05:18:25.780Z,4.10
2023-03-16T05:20:55.872Z,3.47
2023-03-16T05:23:24.380Z,3.80
2023-03-16T05:25:52.496Z,4.10
2023-03-16T05:28:20.453Z,3.83
2023-03-16T05:30:48.422Z,3.93
2023-03-16T05:33:16.326Z,3.73
2023-03-16T05:35:45.671Z,3.77
2023-03-16T05:38:15.814Z,3.90
2023-03-16T05:40:43.886Z,4.20
2023-03-16T05:43:11.967Z,3.90
2023-03-16T05:45:39.837Z,4.00
2023-03-16T05:48:08.031Z,4.13
2023-03-16T05:50:35.933Z,4.13
2023-03-16T05:53:05.211Z,3.40
2023-03-16T05:55:33.113Z,3.97
2023-03-16T05:58:02.247Z,3.90
2023-03-16T06:00:30.767Z,3.67
2023-03-16T06:02:58.789Z,3.80
2023-03-16T06:05:28.598Z,3.27
2023-03-16T06:07:56.539Z,3.50
2023-03-16T06:10:26.866Z,3.70
2023-03-16T06:12:55.073Z,3.50
2023-03-16T06:15:24.943Z,3.40
2023-03-16T06:17:52.884Z,3.60
2023-03-16T06:20:20.968Z,3.43
2023-03-16T06:22:48.973Z,3.53
2023-03-16T06:25:17.230Z,3.87
2023-03-16T06:27:46.616Z,2.90
2023-03-16T06:30:15.592Z,3.80
2023-03-16T06:32:45.318Z,3.43
2023-03-16T06:35:13.818Z,3.33
2023-03-16T06:37:41.773Z,3.70
2023-03-16T06:40:10.985Z,3.63
2023-03-16T06:42:38.882Z,3.27
2023-03-16T06:45:09.605Z,3.53
2023-03-16T06:47:37.498Z,3.27
2023-03-16T06:50:06.396Z,3.13
2023-03-16T06:52:34.363Z,3.03
2023-03-16T06:55:02.221Z,3.23
2023-03-16T06:57:30.133Z,2.93
2023-03-16T06:59:58.108Z,3.23
2023-03-16T07:02:27.418Z,3.03
2023-03-16T07:04:55.276Z,3.10
2023-03-16T07:07:24.419Z,2.90
2023-03-16T07:09:52.347Z,3.10
2023-03-16T07:12:20.296Z,3.27
2023-03-16T07:14:51.852Z,3.03
2023-03-16T07:17:21.647Z,3.50
2023-03-16T07:19:51.415Z,3.13
2023-03-16T07:22:19.345Z,3.40
2023-03-16T07:24:47.387Z,2.90
2023-03-16T07:27:15.360Z,3.20
2023-03-16T07:29:43.260Z,3.30
2023-03-16T07:32:11.587Z,2.87
2023-03-16T07:34:39.635Z,2.90
2023-03-16T07:37:09.238Z,3.00
2023-03-16T07:39:37.663Z,2.93
2023-03-16T07:42:05.787Z,2.53
2023-03-16T07:44:33.654Z,2.40
2023-03-16T07:47:01.809Z,2.87
2023-03-16T07:49:29.676Z,2.20
2023-03-16T07:51:57.572Z,2.73
2023-03-16T07:54:26.825Z,2.70
2023-03-16T07:56:54.771Z,3.23
2023-03-16T07:59:22.695Z,2.83
2023-03-16T08:01:50.636Z,3.10
2023-03-16T08:04:18.578Z,2.77
2023-03-16T08:06:46.493Z,3.43
2023-03-16T08:09:14.447Z,2.67
2023-03-16T08:11:43.748Z,2.70
2023-03-16T08:14:11.739Z,2.50
2023-03-16T08:16:39.678Z,2.63
2023-03-16T08:19:07.640Z,2.90
2023-03-16T08:21:48.757Z,2.87
2023-03-16T08:24:24.196Z,2.70
2023-03-16T08:26:53.620Z,2.67
2023-03-16T08:29:21.509Z,2.60
2023-03-16T08:31:49.514Z,2.63
2023-03-16T08:34:17.985Z,2.80
2023-03-16T08:36:46.056Z,2.80
2023-03-16T08:39:13.988Z,2.60
2023-03-16T08:41:42.857Z,3.00
2023-03-16T08:44:12.934Z,2.70
2023-03-16T08:46:42.326Z,2.60
2023-03-16T08:49:10.875Z,2.80
2023-03-16T08:51:39.191Z,2.70
2023-03-16T08:54:07.421Z,2.97
2023-03-16T08:56:35.439Z,2.93
2023-03-16T08:59:03.680Z,2.63
2023-03-16T09:01:34.100Z,2.80
2023-03-16T09:04:03.262Z,3.20
2023-03-16T09:06:32.194Z,3.00
2023-03-16T09:09:00.105Z,2.87
2023-03-16T09:11:30.553Z,2.97
2023-03-16T09:13:58.508Z,3.30
2023-03-16T09:16:26.722Z,2.80
2023-03-16T09:18:56.026Z,2.93
2023-03-16T09:21:23.923Z,2.90
2023-03-16T09:23:51.908Z,3.20
2023-03-16T09:26:20.716Z,3.00
2023-03-16T09:28:49.322Z,2.53
2023-03-16T09:31:19.740Z,2.87
2023-03-16T09:33:48.026Z,3.10
2023-03-16T09:36:17.668Z,3.10
2023-03-16T09:38:45.637Z,3.07
2023-03-16T09:41:30.462Z,2.63
2023-03-16T09:44:06.081Z,3.57
2023-03-16T09:46:38.562Z,2.87
2023-03-16T09:49:06.592Z,2.90
2023-03-16T09:51:41.220Z,2.77
2023-03-16T09:54:18.502Z,2.80
2023-03-16T09:56:47.702Z,3.23
2023-03-16T09:59:18.318Z,3.00
2023-03-16T10:02:01.781Z,3.20
2023-03-16T10:04:43.850Z,3.00
2023-03-16T10:07:26.529Z,2.70
2023-03-16T10:09:58.532Z,2.60
2023-03-16T10:12:31.765Z,3.00
2023-03-16T10:15:07.036Z,2.97
2023-03-16T10:17:40.113Z,3.10
2023-03-16T10:20:13.006Z,2.70
2023-03-16T10:22:45.842Z,3.23
2023-03-16T10:25:21.057Z,2.93
2023-03-16T10:27:49.144Z,3.23
2023-03-16T10:30:28.161Z,3.07
2023-03-16T10:32:57.531Z,3.00
2023-03-16T10:35:38.924Z,2.90
2023-03-16T10:38:10.398Z,2.50
2023-03-16T10:40:40.193Z,3.00
2023-03-16T10:43:10.168Z,2.63
2023-03-16T10:45:38.175Z,2.90
2023-03-16T10:48:14.071Z,2.97
2023-03-16T10:50:43.058Z,3.00
2023-03-16T10:53:19.333Z,2.90
2023-03-16T10:55:50.263Z,2.33
2023-03-16T10:58:26.682Z,2.63
2023-03-16T11:00:55.154Z,2.73
2023-03-16T11:03:27.496Z,2.30
2023-03-16T11:06:00.702Z,2.50
2023-03-16T11:08:33.945Z,2.67
2023-03-16T11:11:09.495Z,2.60
2023-03-16T11:13:38.971Z,2.53
2023-03-16T11:16:16.794Z,2.93
2023-03-16T11:18:48.334Z,2.60
2023-03-16T11:21:22.188Z,2.67
2023-03-16T11:23:56.097Z,2.70
2023-03-16T11:26:28.823Z,2.70
2023-03-16T11:29:03.631Z,2.80
2023-03-16T11:31:42.614Z,2.50
2023-03-16T11:34:16.122Z,2.77
2023-03-16T11:36:50.035Z,2.40
2023-03-16T11:39:32.902Z,2.70
2023-03-16T11:42:14.271Z,2.70
2023-03-16T11:44:50.611Z,2.50
2023-03-16T11:47:44.878Z,2.53
2023-03-16T11:50:17.352Z,2.80
2023-03-16T11:52:53.604Z,2.40
2023-03-16T11:55:32.285Z,2.57
2023-03-16T11:58:13.728Z,2.30
2023-03-16T12:00:53.460Z,2.50
2023-03-16T12:03:58.443Z,2.80
2023-03-16T12:06:40.443Z,2.70
2023-03-16T12:09:28.757Z,2.70
2023-03-16T12:12:04.824Z,2.70
2023-03-16T12:14:39.730Z,2.40
2023-03-16T12:17:14.676Z,2.47
2023-03-16T12:19:47.127Z,2.50
2023-03-16T12:22:19.831Z,2.70
2023-03-16T12:24:48.314Z,2.60
2023-03-16T12:27:22.544Z,2.57
2023-03-16T12:30:03.896Z,2.50
2023-03-16T12:32:42.625Z,2.30
2023-03-16T12:35:22.984Z,2.70
2023-03-16T12:38:01.694Z,2.87
2023-03-16T12:40:36.161Z,2.87
2023-03-16T12:43:19.986Z,2.37
2023-03-16T12:45:58.481Z,2.40
2023-03-16T12:48:31.102Z,2.30
2023-03-16T12:51:01.353Z,2.37
2023-03-16T12:53:39.248Z,2.50
2023-03-16T12:56:11.891Z,2.20
2023-03-16T12:58:45.681Z,2.10
2023-03-16T13:01:15.232Z,2.47
2023-03-16T13:03:43.950Z,2.73
2023-03-16T13:06:23.513Z,2.30
2023-03-16T13:08:56.805Z,2.47
2023-03-16T13:11:25.286Z,1.90
2023-03-16T13:14:08.724Z,2.17
2023-03-16T13:16:38.294Z,1.80
2023-03-16T13:19:27.270Z,2.17
2023-03-16T13:22:04.096Z,1.70
2023-03-16T13:24:39.843Z,1.97
2023-03-16T13:27:21.188Z,1.73
2023-03-16T13:29:57.320Z,1.77
2023-03-16T13:32:28.651Z,1.70
2023-03-16T13:34:59.763Z,1.60
2023-03-16T13:37:29.983Z,1.50
2023-03-16T13:40:01.794Z,1.60
2023-03-16T13:42:31.578Z,1.67
2023-03-16T13:45:12.290Z,1.40
2023-03-16T13:47:44.263Z,1.60
2023-03-16T13:50:14.018Z,1.60
2023-03-16T13:52:43.187Z,1.53
2023-03-16T13:55:17.909Z,1.60
2023-03-16T13:57:47.515Z,1.30
2023-03-16T14:00:20.160Z,1.50
2023-03-16T14:02:52.108Z,1.50
2023-03-16T14:05:24.504Z,1.10
2023-03-16T14:07:53.190Z,1.63
2023-03-16T14:10:22.212Z,1.40
2023-03-16T14:12:54.659Z,1.47
2023-03-16T14:15:27.296Z,1.20
2023-03-16T14:18:02.361Z,1.30
2023-03-16T14:20:33.132Z,1.33
2023-03-16T14:23:02.980Z,1.73
2023-03-16T14:25:31.449Z,1.27
2023-03-16T14:28:01.611Z,1.53
2023-03-16T14:30:32.081Z,1.90
2023-03-16T14:33:02.191Z,1.33
2023-03-16T14:35:32.251Z,1.00
2023-03-16T14:38:22.335Z,1.20
2023-03-16T14:40:55.064Z,1.10
2023-03-16T14:43:28.262Z,0.93
2023-03-16T14:45:58.469Z,1.20
2023-03-16T14:48:27.020Z,1.20
2023-03-16T14:50:57.409Z,1.10
2023-03-16T14:53:28.327Z,1.77
2023-03-16T14:55:56.761Z,0.93
2023-03-16T14:58:25.166Z,1.20
2023-03-16T15:00:54.667Z,1.00
2023-03-16T15:03:36.110Z,1.07
2023-03-16T15:06:04.528Z,1.10
2023-03-16T15:08:37.064Z,1.50
2023-03-16T15:11:07.791Z,0.90
2023-03-16T15:13:52.545Z,1.03
2023-03-16T15:16:21.950Z,1.20
2023-03-16T15:18:51.846Z,1.33
2023-03-16T15:21:23.321Z,1.17
2023-03-16T15:23:51.333Z,1.20
2023-03-16T15:26:27.168Z,1.20
2023-03-16T15:28:55.340Z,1.33
2023-03-16T15:31:23.610Z,1.30
2023-03-16T15:33:52.914Z,1.10
2023-03-16T15:36:24.220Z,0.87
2023-03-16T15:38:55.097Z,0.97
2023-03-16T15:41:24.125Z,1.03
2023-03-16T15:43:52.844Z,1.10
2023-03-16T15:46:20.865Z,1.20
2023-03-16T15:48:48.815Z,0.90
2023-03-16T15:51:22.410Z,1.00
2023-03-16T15:53:52.547Z,1.30
2023-03-16T15:56:29.063Z,0.80
2023-03-16T15:58:58.002Z,1.20
2023-03-16T16:01:27.294Z,1.03
2023-03-16T16:03:56.079Z,1.10
2023-03-16T16:06:26.551Z,1.30
2023-03-16T16:08:54.481Z,1.07
2023-03-16T16:11:26.345Z,0.90
2023-03-16T16:13:55.781Z,1.20
2023-03-16T16:16:23.730Z,1.10
2023-03-16T16:18:51.943Z,1.20
2023-03-16T16:21:23.372Z,1.20
2023-03-16T16:23:53.990Z,1.90
2023-03-16T16:26:46.968Z,1.50
2023-03-16T16:29:16.220Z,1.17
2023-03-16T16:31:44.751Z,1.93
2023-03-16T16:34:14.899Z,1.57
2023-03-16T16:36:43.023Z,1.50
2023-03-16T16:39:12.792Z,1.47
2023-03-16T16:41:41.804Z,1.30
2023-03-16T16:44:17.661Z,1.70
2023-03-16T16:46:45.620Z,1.30
2023-03-16T16:49:16.560Z,1.10
2023-03-16T16:51:44.548Z,1.20
2023-03-16T16:54:17.548Z,1.10
2023-03-16T16:56:46.371Z,1.00
2023-03-16T16:59:18.567Z,1.10
2023-03-16T17:01:48.184Z,1.00
2023-03-16T17:04:18.309Z,1.17
2023-03-16T17:06:48.018Z,1.47
2023-03-16T17:09:17.283Z,1.10
2023-03-16T17:11:46.208Z,1.13
2023-03-16T17:14:18.163Z,1.10
2023-03-16T17:16:47.553Z,1.30
2023-03-16T17:19:21.268Z,1.27
2023-03-16T17:21:49.805Z,1.30
2023-03-16T17:24:19.348Z,1.50
2023-03-16T17:26:48.926Z,0.90
2023-03-16T17:29:21.013Z,1.40
2023-03-16T17:31:50.480Z,1.13
2023-03-16T17:34:21.833Z,1.07
2023-03-16T17:36:49.871Z,1.10
2023-03-16T17:39:22.080Z,1.37
2023-03-16T17:41:55.770Z,1.10
2023-03-16T17:44:23.782Z,1.50
2023-03-16T17:46:51.673Z,1.70
2023-03-16T17:49:20.467Z,1.73
2023-03-16T17:51:49.044Z,1.60
2023-03-16T17:54:16.956Z,1.50
2023-03-16T17:56:48.040Z,1.30
2023-03-16T17:59:18.806Z,1.83
2023-03-16T18:01:48.120Z,1.70
2023-03-16T18:04:17.791Z,1.77
2023-03-16T18:06:47.384Z,1.67
2023-03-16T18:09:15.836Z,1.50
2023-03-16T18:11:47.719Z,2.00
2023-03-16T18:14:25.339Z,2.07
2023-03-16T18:16:54.475Z,1.47
2023-03-16T18:19:25.235Z,2.23
2023-03-16T18:21:53.939Z,1.50
2023-03-16T18:24:25.591Z,2.00
2023-03-16T18:26:55.241Z,2.07
2023-03-16T18:29:24.048Z,2.00
2023-03-16T18:31:55.080Z,1.60
2023-03-16T18:34:25.226Z,1.80
2023-03-16T18:36:54.974Z,2.07
2023-03-16T18:39:23.778Z,1.83
2023-03-16T18:41:52.615Z,1.83
2023-03-16T18:44:23.562Z,1.60
2023-03-16T18:46:54.828Z,1.50
2023-03-16T18:49:28.040Z,1.57
2023-03-16T18:51:56.245Z,1.63
2023-03-16T18:54:27.655Z,1.87
2023-03-16T18:56:55.873Z,1.70
2023-03-16T18:59:25.420Z,1.90
2023-03-16T19:01:54.097Z,2.47
2023-03-16T19:04:24.922Z,2.00
2023-03-16T19:06:54.972Z,2.20
2023-03-16T19:09:25.599Z,2.30
2023-03-16T19:11:53.572Z,2.10
2023-03-16T19:14:24.739Z,2.20
2023-03-16T19:16:53.040Z,2.30
2023-03-16T19:19:22.691Z,2.47
2023-03-16T19:21:52.658Z,2.20
2023-03-16T19:24:26.494Z,2.00
2023-03-16T19:26:55.042Z,2.33
2023-03-16T19:29:30.033Z,1.90
2023-03-16T19:31:58.973Z,2.00
2023-03-16T19:34:27.113Z,2.03
2023-03-16T19:36:55.021Z,1.70
2023-03-16T19:39:22.889Z,1.80
2023-03-16T19:41:55.828Z,2.00
2023-03-16T19:44:27.468Z,1.63
2023-03-16T19:46:56.074Z,1.80
2023-03-16T19:49:26.935Z,1.57
2023-03-16T19:51:56.559Z,1.73
2023-03-16T19:54:26.122Z,1.63
2023-03-16T19:56:55.355Z,1.80
2023-03-16T19:59:27.291Z,1.87
2023-03-16T20:01:55.208Z,2.10
2023-03-16T20:04:25.249Z,1.70
2023-03-16T20:06:54.050Z,1.90
2023-03-16T20:09:22.149Z,1.70
2023-03-16T20:11:50.733Z,2.17
2023-03-16T20:14:21.794Z,2.20
2023-03-16T20:16:51.681Z,1.80
2023-03-16T20:19:22.226Z,1.80
2023-03-16T20:21:50.417Z,1.80
2023-03-16T20:24:20.744Z,2.07
2023-03-16T20:26:51.334Z,1.80
2023-03-16T20:29:24.844Z,1.60
2023-03-16T20:31:54.450Z,1.90
2023-03-16T20:34:24.384Z,1.80
2023-03-16T20:36:52.252Z,1.90
2023-03-16T20:39:20.153Z,1.80
2023-03-16T20:41:48.726Z,2.07
2023-03-16T20:44:20.057Z,2.17
2023-03-16T20:46:48.072Z,2.03
2023-03-16T20:49:32.376Z,2.13
2023-03-16T20:52:00.360Z,1.70
2023-03-16T20:54:28.346Z,1.80
2023-03-16T20:56:56.285Z,1.93
2023-03-16T20:59:26.462Z,2.17
2023-03-16T21:01:55.617Z,2.07
2023-03-16T21:04:27.246Z,2.43
2023-03-16T21:06:56.784Z,2.07
2023-03-16T21:09:24.871Z,2.10
2023-03-16T21:11:53.130Z,1.83
2023-03-16T21:14:24.043Z,1.93
2023-03-16T21:16:52.469Z,2.10
2023-03-16T21:19:23.290Z,2.00
2023-03-16T21:21:53.013Z,1.90
2023-03-16T21:24:21.115Z,1.90
2023-03-16T21:26:49.190Z,2.13
2023-03-16T21:29:21.119Z,2.00
2023-03-16T21:31:49.472Z,1.80
2023-03-16T21:34:24.764Z,2.00
2023-03-16T21:36:55.109Z,2.00
2023-03-16T21:39:25.326Z,2.00
2023-03-16T21:41:53.668Z,1.80
2023-03-16T21:44:21.761Z,2.03
2023-03-16T21:46:49.767Z,1.80
2023-03-16T21:49:18.006Z,1.90
2023-03-16T21:51:45.894Z,2.00
2023-03-16T21:54:16.560Z,2.00
2023-03-16T21:56:45.074Z,1.97
2023-03-16T21:59:13.259Z,2.33
2023-03-16T22:01:58.222Z,2.67
2023-03-16T22:04:28.825Z,1.90
2023-03-16T22:06:56.843Z,2.10
2023-03-16T22:09:30.037Z,2.20
2023-03-16T22:11:58.123Z,2.00
2023-03-16T22:14:27.067Z,1.93
2023-03-16T22:16:55.438Z,2.13
2023-03-16T22:19:23.442Z,2.07
2023-03-16T22:21:51.608Z,2.00
2023-03-16T22:24:21.920Z,1.83
2023-03-16T22:26:51.379Z,2.40
2023-03-16T22:29:23.270Z,1.90
2023-03-16T22:31:53.757Z,2.07
2023-03-16T22:34:28.299Z,2.33
2023-03-16T22:36:57.495Z,2.53
2023-03-16T22:39:25.558Z,2.40
2023-03-16T22:41:55.050Z,2.10
2023-03-16T22:44:24.456Z,2.20
2023-03-16T22:46:52.358Z,1.63
2023-03-16T22:49:22.232Z,1.70
2023-03-16T22:51:52.551Z,2.00
2023-03-16T22:54:24.454Z,2.10
2023-03-16T22:56:54.073Z,2.30
2023-03-16T22:59:25.574Z,1.73
2023-03-16T23:01:53.559Z,1.70
2023-03-16T23:04:23.339Z,1.93
2023-03-16T23:06:54.526Z,1.80
2023-03-16T23:09:23.362Z,1.80
2023-03-16T23:11:54.581Z,1.90
2023-03-16T23:14:24.878Z,2.40
2023-03-16T23:16:53.599Z,2.20
2023-03-16T23:19:27.346Z,1.93
2023-03-16T23:21:57.414Z,2.00
2023-03-16T23:24:25.338Z,2.30
2023-03-16T23:26:56.046Z,1.77
2023-03-16T23:29:26.035Z,1.83
2023-03-16T23:31:54.668Z,2.00
2023-03-16T23:34:24.335Z,2.00
2023-03-16T23:36:53.011Z,1.90
2023-03-16T23:39:20.931Z,2.00
2023-03-16T23:41:50.505Z,2.27
2023-03-16T23:44:22.900Z,2.10
2023-03-16T23:46:51.701Z,1.93
2023-03-16T23:49:22.824Z,1.87
2023-03-16T23:51:52.818Z,1.90
2023-03-16T23:54:23.073Z,1.83
2023-03-16T23:56:51.945Z,2.10
2023-03-16T23:59:21.407Z,2.00
